DLH05H EDDF-LEBL
Flight info
| Callsign | DLH05H |
|---|---|
| Flight time | 1h 46m |
| Altitude | 35000 |
| Route | ANEKI2L/18 ANEKI Y163 HERBI Y164 MOPAN DCT LUTIX/N0451F370 DCT BENOT DCT NEMOS DCT GEVEA DCT INCUS DCT BALSI DCT ETIDO DCT KURIR DCT PEQEF DCT NAKIS DCT BOLSA DCT PPG DCT ALBER |
| Aircraft | A21N/M-SDE2E3FGHIRWXY/LB1 |
Departure
| Time | 2026-05-07 14:49 |
|---|---|
| Airport | Frankfurt Main Airport (EDDF) |
Arrival
| Time | 2026-05-07 16:35 |
|---|---|
| Airport | Josep Tarradellas Barcelona-El Prat Airport (LEBL) |
| Time | Latitude | Longitude | Altitude | Speed | Heading |
|---|---|---|---|---|---|
| 2026-05-07 14:13 | 50.04884 | 8.57152 | 361 ft | 0 kts | 161° |
| 2026-05-07 14:36 | 50.04882 | 8.57152 | 361 ft | 1 kts | 179° |
| 2026-05-07 14:36 | 50.04871 | 8.57132 | 367 ft | 3 kts | 242° |
| 2026-05-07 14:36 | 50.04858 | 8.57089 | 365 ft | 5 kts | 233° |
| 2026-05-07 14:37 | 50.04828 | 8.57057 | 363 ft | 3 kts | 204° |
| 2026-05-07 14:37 | 50.04827 | 8.57056 | 364 ft | 0 kts | 204° |
| 2026-05-07 14:40 | 50.04809 | 8.57044 | 364 ft | 5 kts | 204° |
| 2026-05-07 14:40 | 50.04767 | 8.57015 | 364 ft | 8 kts | 204° |
| 2026-05-07 14:40 | 50.04709 | 8.56974 | 363 ft | 10 kts | 205° |
| 2026-05-07 14:41 | 50.04638 | 8.56923 | 364 ft | 12 kts | 195° |
| 2026-05-07 14:41 | 50.04548 | 8.56888 | 364 ft | 15 kts | 193° |
| 2026-05-07 14:41 | 50.04469 | 8.56855 | 368 ft | 11 kts | 211° |
| 2026-05-07 14:41 | 50.04432 | 8.56744 | 368 ft | 13 kts | 250° |
| 2026-05-07 14:42 | 50.04400 | 8.56609 | 367 ft | 14 kts | 249° |
| 2026-05-07 14:42 | 50.04364 | 8.56458 | 363 ft | 16 kts | 249° |
| 2026-05-07 14:42 | 50.04324 | 8.56294 | 365 ft | 17 kts | 250° |
| 2026-05-07 14:42 | 50.04281 | 8.56116 | 362 ft | 18 kts | 250° |
| 2026-05-07 14:43 | 50.04252 | 8.55991 | 365 ft | 19 kts | 250° |
| 2026-05-07 14:43 | 50.04205 | 8.55791 | 360 ft | 20 kts | 249° |
| 2026-05-07 14:43 | 50.04154 | 8.55580 | 361 ft | 21 kts | 249° |
| 2026-05-07 14:43 | 50.04099 | 8.55357 | 360 ft | 23 kts | 250° |
| 2026-05-07 14:44 | 50.04044 | 8.55116 | 361 ft | 24 kts | 249° |
| 2026-05-07 14:44 | 50.03982 | 8.54865 | 359 ft | 25 kts | 250° |
| 2026-05-07 14:44 | 50.03920 | 8.54602 | 357 ft | 26 kts | 249° |
| 2026-05-07 14:44 | 50.03857 | 8.54360 | 355 ft | 20 kts | 233° |
| 2026-05-07 14:45 | 50.03786 | 8.54166 | 354 ft | 22 kts | 249° |
| 2026-05-07 14:45 | 50.03733 | 8.53940 | 354 ft | 23 kts | 249° |
| 2026-05-07 14:45 | 50.03675 | 8.53701 | 351 ft | 24 kts | 249° |
| 2026-05-07 14:45 | 50.03613 | 8.53456 | 349 ft | 25 kts | 249° |
| 2026-05-07 14:46 | 50.03561 | 8.53234 | 347 ft | 15 kts | 249° |
| 2026-05-07 14:46 | 50.03523 | 8.53079 | 346 ft | 14 kts | 249° |
| 2026-05-07 14:46 | 50.03490 | 8.52939 | 347 ft | 14 kts | 249° |
| 2026-05-07 14:46 | 50.03449 | 8.52793 | 342 ft | 15 kts | 248° |
| 2026-05-07 14:47 | 50.03411 | 8.52636 | 339 ft | 9 kts | 247° |
| 2026-05-07 14:47 | 50.03355 | 8.52594 | 339 ft | 10 kts | 182° |
| 2026-05-07 14:47 | 50.03334 | 8.52593 | 341 ft | 0 kts | 178° |
| 2026-05-07 14:47 | 50.03328 | 8.52594 | 340 ft | 6 kts | 178° |
| 2026-05-07 14:48 | 50.03071 | 8.52597 | 341 ft | 71 kts | 180° |
| 2026-05-07 14:48 | 50.02369 | 8.52603 | 341 ft | 128 kts | 180° |
| 2026-05-07 14:48 | 50.01317 | 8.52617 | 341 ft | 172 kts | 181° |
| 2026-05-07 14:48 | 50.00111 | 8.52649 | 834 ft | 172 kts | 181° |
| 2026-05-07 14:49 | 49.98895 | 8.52701 | 1411 ft | 177 kts | 178° |
| 2026-05-07 14:49 | 49.97627 | 8.52814 | 1883 ft | 189 kts | 176° |
| 2026-05-07 14:49 | 49.96264 | 8.52935 | 2445 ft | 205 kts | 178° |
| 2026-05-07 14:49 | 49.94738 | 8.53033 | 2993 ft | 230 kts | 178° |
| 2026-05-07 14:50 | 49.93142 | 8.53137 | 3648 ft | 235 kts | 178° |
| 2026-05-07 14:50 | 49.91486 | 8.53247 | 4534 ft | 239 kts | 179° |
| 2026-05-07 14:50 | 49.89818 | 8.53360 | 5501 ft | 241 kts | 179° |
| 2026-05-07 14:50 | 49.88131 | 8.53473 | 6452 ft | 244 kts | 179° |
| 2026-05-07 14:51 | 49.86425 | 8.53588 | 7333 ft | 247 kts | 179° |
| 2026-05-07 14:51 | 49.84698 | 8.53704 | 8207 ft | 250 kts | 179° |
| 2026-05-07 14:51 | 49.82953 | 8.53822 | 9073 ft | 253 kts | 179° |
| 2026-05-07 14:51 | 49.81180 | 8.53942 | 9931 ft | 256 kts | 179° |
| 2026-05-07 14:52 | 49.79388 | 8.54063 | 10694 ft | 260 kts | 179° |
| 2026-05-07 14:52 | 49.77567 | 8.54084 | 11424 ft | 266 kts | 185° |
| 2026-05-07 14:52 | 49.75649 | 8.53860 | 11816 ft | 287 kts | 186° |
| 2026-05-07 14:52 | 49.73577 | 8.53571 | 12139 ft | 310 kts | 186° |
| 2026-05-07 14:53 | 49.71347 | 8.53263 | 12447 ft | 333 kts | 186° |
| 2026-05-07 14:53 | 49.68969 | 8.52942 | 12776 ft | 353 kts | 186° |
| 2026-05-07 14:53 | 49.66490 | 8.52612 | 13423 ft | 361 kts | 186° |
| 2026-05-07 14:53 | 49.64002 | 8.52284 | 14141 ft | 366 kts | 186° |
| 2026-05-07 14:54 | 49.61425 | 8.51947 | 14872 ft | 369 kts | 186° |
| 2026-05-07 14:54 | 49.58892 | 8.51615 | 15597 ft | 372 kts | 186° |
| 2026-05-07 14:54 | 49.56299 | 8.51275 | 16317 ft | 375 kts | 186° |
| 2026-05-07 14:54 | 49.53690 | 8.50932 | 17017 ft | 378 kts | 186° |
| 2026-05-07 14:55 | 49.51061 | 8.50586 | 17697 ft | 381 kts | 186° |
| 2026-05-07 14:55 | 49.48404 | 8.50238 | 18362 ft | 384 kts | 187° |
| 2026-05-07 14:55 | 49.45722 | 8.49887 | 18938 ft | 387 kts | 187° |
| 2026-05-07 14:55 | 49.43027 | 8.49533 | 19497 ft | 390 kts | 187° |
| 2026-05-07 14:56 | 49.40320 | 8.49179 | 20065 ft | 392 kts | 187° |
| 2026-05-07 14:56 | 49.37586 | 8.48821 | 20619 ft | 395 kts | 187° |
| 2026-05-07 14:56 | 49.34872 | 8.48467 | 21154 ft | 398 kts | 187° |
| 2026-05-07 14:56 | 49.32103 | 8.48107 | 21697 ft | 401 kts | 187° |
| 2026-05-07 14:57 | 49.29309 | 8.47745 | 22231 ft | 404 kts | 187° |
| 2026-05-07 14:57 | 49.26498 | 8.47379 | 22774 ft | 407 kts | 187° |
| 2026-05-07 14:57 | 49.23666 | 8.47008 | 23310 ft | 410 kts | 187° |
| 2026-05-07 14:57 | 49.20817 | 8.46635 | 23795 ft | 412 kts | 187° |
| 2026-05-07 14:58 | 49.17950 | 8.46260 | 24273 ft | 414 kts | 187° |
| 2026-05-07 14:58 | 49.15061 | 8.45887 | 24735 ft | 417 kts | 187° |
| 2026-05-07 14:58 | 49.12149 | 8.45511 | 25177 ft | 420 kts | 187° |
| 2026-05-07 14:58 | 49.09272 | 8.45141 | 25609 ft | 422 kts | 187° |
| 2026-05-07 14:59 | 49.06341 | 8.44692 | 26029 ft | 424 kts | 191° |
| 2026-05-07 14:59 | 49.03447 | 8.43809 | 26443 ft | 425 kts | 195° |
| 2026-05-07 14:59 | 49.00562 | 8.42773 | 26846 ft | 427 kts | 196° |
| 2026-05-07 14:59 | 48.97648 | 8.41726 | 27239 ft | 430 kts | 195° |
| 2026-05-07 15:00 | 48.94723 | 8.40691 | 27632 ft | 432 kts | 195° |
| 2026-05-07 15:00 | 48.91823 | 8.39675 | 28013 ft | 435 kts | 195° |
| 2026-05-07 15:00 | 48.88863 | 8.38646 | 28397 ft | 437 kts | 195° |
| 2026-05-07 15:00 | 48.85890 | 8.37618 | 28771 ft | 440 kts | 195° |
| 2026-05-07 15:01 | 48.82898 | 8.36582 | 29142 ft | 442 kts | 195° |
| 2026-05-07 15:01 | 48.79889 | 8.35539 | 29500 ft | 445 kts | 195° |
| 2026-05-07 15:01 | 48.76869 | 8.34481 | 29947 ft | 444 kts | 195° |
| 2026-05-07 15:01 | 48.73871 | 8.33381 | 30421 ft | 442 kts | 196° |
| 2026-05-07 15:02 | 48.70885 | 8.32279 | 30801 ft | 442 kts | 196° |
| 2026-05-07 15:02 | 48.67884 | 8.31174 | 31142 ft | 442 kts | 196° |
| 2026-05-07 15:02 | 48.64892 | 8.30081 | 31500 ft | 442 kts | 196° |
| 2026-05-07 15:02 | 48.61903 | 8.28995 | 31849 ft | 442 kts | 196° |
| 2026-05-07 15:03 | 48.58950 | 8.27924 | 32199 ft | 442 kts | 196° |
| 2026-05-07 15:03 | 48.55954 | 8.26843 | 32541 ft | 442 kts | 196° |
| 2026-05-07 15:03 | 48.52957 | 8.25766 | 32879 ft | 442 kts | 196° |
| 2026-05-07 15:03 | 48.49968 | 8.24688 | 33199 ft | 443 kts | 196° |
| 2026-05-07 15:04 | 48.46968 | 8.23602 | 33514 ft | 443 kts | 196° |
| 2026-05-07 15:04 | 48.43971 | 8.22505 | 33822 ft | 443 kts | 196° |
| 2026-05-07 15:04 | 48.40976 | 8.21408 | 34109 ft | 443 kts | 196° |
| 2026-05-07 15:04 | 48.37983 | 8.20314 | 34364 ft | 442 kts | 196° |
| 2026-05-07 15:05 | 48.34994 | 8.19223 | 34612 ft | 442 kts | 196° |
| 2026-05-07 15:05 | 48.32012 | 8.18137 | 34869 ft | 441 kts | 196° |
| 2026-05-07 15:05 | 48.29024 | 8.17051 | 35050 ft | 442 kts | 196° |
| 2026-05-07 15:05 | 48.26045 | 8.15948 | 35077 ft | 441 kts | 198° |
| 2026-05-07 15:06 | 48.20422 | 8.12427 | 35055 ft | 436 kts | 209° |
| 2026-05-07 15:06 | 48.14997 | 8.08350 | 35030 ft | 436 kts | 209° |
| 2026-05-07 15:07 | 48.09593 | 8.04340 | 35035 ft | 435 kts | 209° |
| 2026-05-07 15:07 | 48.04160 | 8.00335 | 35041 ft | 435 kts | 209° |
| 2026-05-07 15:08 | 47.98733 | 7.96350 | 35035 ft | 435 kts | 209° |
| 2026-05-07 15:08 | 47.93301 | 7.92368 | 35021 ft | 433 kts | 209° |
| 2026-05-07 15:09 | 47.87897 | 7.88416 | 35031 ft | 432 kts | 209° |
| 2026-05-07 15:09 | 47.82482 | 7.84466 | 35025 ft | 433 kts | 209° |
| 2026-05-07 15:10 | 47.77101 | 7.80552 | 35021 ft | 433 kts | 209° |
| 2026-05-07 15:10 | 47.71696 | 7.76630 | 35019 ft | 432 kts | 209° |
| 2026-05-07 15:11 | 47.66289 | 7.72712 | 35022 ft | 432 kts | 209° |
| 2026-05-07 15:11 | 47.60883 | 7.68803 | 35023 ft | 432 kts | 209° |
| 2026-05-07 15:12 | 47.55474 | 7.64903 | 35025 ft | 432 kts | 209° |
| 2026-05-07 15:12 | 47.50070 | 7.61016 | 35017 ft | 430 kts | 210° |
| 2026-05-07 15:13 | 47.44716 | 7.57176 | 35022 ft | 430 kts | 210° |
| 2026-05-07 15:13 | 47.39325 | 7.53316 | 35021 ft | 430 kts | 210° |
| 2026-05-07 15:14 | 47.33939 | 7.49468 | 34987 ft | 430 kts | 210° |
| 2026-05-07 15:14 | 47.28569 | 7.45644 | 34997 ft | 428 kts | 210° |
| 2026-05-07 15:15 | 47.23197 | 7.41823 | 34997 ft | 428 kts | 210° |
| 2026-05-07 15:15 | 47.17901 | 7.37864 | 34999 ft | 425 kts | 216° |
| 2026-05-07 15:16 | 47.15582 | 7.35211 | 34991 ft | 420 kts | 227° |
| 2026-05-07 15:16 | 47.13654 | 7.32016 | 34986 ft | 416 kts | 233° |
| 2026-05-07 15:16 | 47.10112 | 7.25362 | 35003 ft | 416 kts | 234° |
| 2026-05-07 15:17 | 47.06518 | 7.18692 | 35009 ft | 417 kts | 234° |
| 2026-05-07 15:17 | 47.02893 | 7.12045 | 35028 ft | 417 kts | 234° |
| 2026-05-07 15:18 | 46.99269 | 7.05417 | 35023 ft | 417 kts | 233° |
| 2026-05-07 15:18 | 46.95638 | 6.98794 | 35009 ft | 416 kts | 233° |
| 2026-05-07 15:19 | 46.92037 | 6.92259 | 35022 ft | 415 kts | 232° |
| 2026-05-07 15:19 | 46.87774 | 6.86512 | 35027 ft | 419 kts | 222° |
| 2026-05-07 15:20 | 46.83237 | 6.81153 | 35026 ft | 419 kts | 222° |
| 2026-05-07 15:20 | 46.78710 | 6.75783 | 35020 ft | 419 kts | 222° |
| 2026-05-07 15:21 | 46.74197 | 6.70428 | 35011 ft | 417 kts | 222° |
| 2026-05-07 15:21 | 46.69736 | 6.65142 | 35013 ft | 416 kts | 222° |
| 2026-05-07 15:22 | 46.65241 | 6.59830 | 35013 ft | 416 kts | 222° |
| 2026-05-07 15:22 | 46.60746 | 6.54528 | 35006 ft | 416 kts | 222° |
| 2026-05-07 15:23 | 46.56252 | 6.49244 | 35002 ft | 415 kts | 222° |
| 2026-05-07 15:23 | 46.51755 | 6.43961 | 35001 ft | 416 kts | 222° |
| 2026-05-07 15:24 | 46.47248 | 6.38681 | 35004 ft | 416 kts | 222° |
| 2026-05-07 15:24 | 46.42740 | 6.33412 | 34998 ft | 416 kts | 222° |
| 2026-05-07 15:25 | 46.38226 | 6.28143 | 34984 ft | 416 kts | 222° |
| 2026-05-07 15:25 | 46.33723 | 6.22903 | 34994 ft | 415 kts | 222° |
| 2026-05-07 15:26 | 46.29250 | 6.17711 | 34999 ft | 414 kts | 222° |
| 2026-05-07 15:26 | 46.24316 | 6.13342 | 34997 ft | 424 kts | 205° |
| 2026-05-07 15:27 | 46.18485 | 6.11530 | 34988 ft | 431 kts | 193° |
| 2026-05-07 15:27 | 46.12542 | 6.10334 | 35001 ft | 431 kts | 193° |
| 2026-05-07 15:28 | 46.06617 | 6.09050 | 34984 ft | 430 kts | 194° |
| 2026-05-07 15:28 | 46.00705 | 6.07742 | 34949 ft | 430 kts | 194° |
| 2026-05-07 15:29 | 45.94797 | 6.06436 | 34966 ft | 428 kts | 194° |
| 2026-05-07 15:29 | 45.88953 | 6.05147 | 34968 ft | 427 kts | 194° |
| 2026-05-07 15:30 | 45.83076 | 6.03852 | 34969 ft | 427 kts | 194° |
| 2026-05-07 15:30 | 45.77204 | 6.02554 | 34962 ft | 425 kts | 193° |
| 2026-05-07 15:31 | 45.72344 | 6.01482 | 34970 ft | 425 kts | 193° |
| 2026-05-07 15:31 | 45.66496 | 6.00194 | 34960 ft | 425 kts | 193° |
| 2026-05-07 15:32 | 45.60640 | 5.98906 | 34952 ft | 425 kts | 193° |
| 2026-05-07 15:32 | 45.54804 | 5.97627 | 34960 ft | 423 kts | 193° |
| 2026-05-07 15:33 | 45.49100 | 5.95811 | 34959 ft | 416 kts | 206° |
| 2026-05-07 15:33 | 45.46588 | 5.93965 | 34961 ft | 410 kts | 217° |
| 2026-05-07 15:33 | 45.44379 | 5.91421 | 34968 ft | 408 kts | 226° |
| 2026-05-07 15:34 | 45.40418 | 5.85666 | 34968 ft | 406 kts | 228° |
| 2026-05-07 15:34 | 45.36470 | 5.79936 | 34971 ft | 407 kts | 227° |
| 2026-05-07 15:35 | 45.32479 | 5.74231 | 34975 ft | 407 kts | 227° |
| 2026-05-07 15:35 | 45.28477 | 5.68524 | 34976 ft | 408 kts | 227° |
| 2026-05-07 15:36 | 45.24473 | 5.62826 | 34950 ft | 407 kts | 227° |
| 2026-05-07 15:36 | 45.20466 | 5.57142 | 34971 ft | 406 kts | 226° |
| 2026-05-07 15:37 | 45.16495 | 5.51523 | 34969 ft | 405 kts | 226° |
| 2026-05-07 15:37 | 45.12498 | 5.45875 | 34972 ft | 406 kts | 226° |
| 2026-05-07 15:38 | 45.08501 | 5.40224 | 34971 ft | 405 kts | 226° |
| 2026-05-07 15:38 | 45.04499 | 5.34588 | 34970 ft | 406 kts | 226° |
| 2026-05-07 15:39 | 45.00494 | 5.28960 | 34970 ft | 406 kts | 226° |
| 2026-05-07 15:39 | 44.96501 | 5.23368 | 34964 ft | 406 kts | 226° |
| 2026-05-07 15:40 | 44.92484 | 5.17754 | 34967 ft | 407 kts | 226° |
| 2026-05-07 15:40 | 44.88461 | 5.12138 | 34965 ft | 407 kts | 226° |
| 2026-05-07 15:41 | 44.84443 | 5.06547 | 34962 ft | 404 kts | 226° |
| 2026-05-07 15:41 | 44.80432 | 5.00970 | 34963 ft | 405 kts | 226° |
| 2026-05-07 15:42 | 44.76416 | 4.95406 | 34965 ft | 405 kts | 226° |
| 2026-05-07 15:42 | 44.72439 | 4.89772 | 34963 ft | 406 kts | 230° |
| 2026-05-07 15:43 | 44.69002 | 4.83542 | 34964 ft | 406 kts | 233° |
| 2026-05-07 15:43 | 44.65601 | 4.77198 | 34962 ft | 406 kts | 233° |
| 2026-05-07 15:44 | 44.62188 | 4.70878 | 34958 ft | 406 kts | 233° |
| 2026-05-07 15:44 | 44.58764 | 4.64568 | 34960 ft | 406 kts | 233° |
| 2026-05-07 15:45 | 44.55340 | 4.58264 | 34955 ft | 406 kts | 233° |
| 2026-05-07 15:45 | 44.51905 | 4.51958 | 34950 ft | 407 kts | 233° |
| 2026-05-07 15:46 | 44.46752 | 4.42526 | 34956 ft | 406 kts | 233° |
| 2026-05-07 15:47 | 44.43333 | 4.36287 | 34954 ft | 406 kts | 233° |
| 2026-05-07 15:47 | 44.39894 | 4.30006 | 34953 ft | 407 kts | 233° |
| 2026-05-07 15:48 | 44.36874 | 4.23343 | 34950 ft | 407 kts | 243° |
| 2026-05-07 15:48 | 44.34435 | 4.16208 | 34943 ft | 407 kts | 243° |
| 2026-05-07 15:49 | 44.31293 | 4.09701 | 34949 ft | 405 kts | 225° |
| 2026-05-07 15:49 | 44.26664 | 4.05178 | 34952 ft | 408 kts | 212° |
| 2026-05-07 15:50 | 44.21706 | 4.01285 | 34951 ft | 409 kts | 212° |
| 2026-05-07 15:50 | 44.16803 | 3.97374 | 34948 ft | 409 kts | 212° |
| 2026-05-07 15:51 | 44.11885 | 3.93442 | 34945 ft | 405 kts | 212° |
| 2026-05-07 15:51 | 44.06971 | 3.89513 | 34946 ft | 407 kts | 212° |
| 2026-05-07 15:52 | 44.02072 | 3.85599 | 34948 ft | 406 kts | 212° |
| 2026-05-07 15:52 | 43.97205 | 3.81719 | 34947 ft | 406 kts | 212° |
| 2026-05-07 15:53 | 43.92319 | 3.77831 | 34948 ft | 403 kts | 212° |
| 2026-05-07 15:53 | 43.87455 | 3.73969 | 34951 ft | 403 kts | 212° |
| 2026-05-07 15:54 | 43.82586 | 3.70107 | 34954 ft | 403 kts | 212° |
| 2026-05-07 15:54 | 43.77721 | 3.66256 | 34951 ft | 403 kts | 212° |
| 2026-05-07 15:55 | 43.72865 | 3.62421 | 34951 ft | 400 kts | 212° |
| 2026-05-07 15:55 | 43.68024 | 3.58605 | 34951 ft | 400 kts | 212° |
| 2026-05-07 15:56 | 43.63180 | 3.54795 | 34951 ft | 400 kts | 212° |
| 2026-05-07 15:56 | 43.58341 | 3.50995 | 34957 ft | 400 kts | 212° |
| 2026-05-07 15:57 | 43.53527 | 3.47220 | 34953 ft | 395 kts | 212° |
| 2026-05-07 15:57 | 43.48743 | 3.43477 | 34962 ft | 395 kts | 212° |
| 2026-05-07 15:58 | 43.43987 | 3.39762 | 34965 ft | 395 kts | 212° |
| 2026-05-07 15:58 | 43.39197 | 3.36028 | 34966 ft | 395 kts | 212° |
| 2026-05-07 15:59 | 43.34431 | 3.32321 | 34961 ft | 390 kts | 212° |
| 2026-05-07 15:59 | 43.29714 | 3.28657 | 34961 ft | 390 kts | 212° |
| 2026-05-07 16:00 | 43.24990 | 3.25001 | 34961 ft | 389 kts | 212° |
| 2026-05-07 16:00 | 43.20264 | 3.21349 | 34961 ft | 389 kts | 212° |
| 2026-05-07 16:01 | 43.15574 | 3.17729 | 34955 ft | 380 kts | 212° |
| 2026-05-07 16:01 | 43.11027 | 3.14227 | 34955 ft | 377 kts | 212° |
| 2026-05-07 16:02 | 43.06449 | 3.10706 | 34953 ft | 378 kts | 212° |
| 2026-05-07 16:02 | 43.01856 | 3.07180 | 34952 ft | 378 kts | 212° |
| 2026-05-07 16:03 | 42.97257 | 3.03655 | 34952 ft | 380 kts | 212° |
| 2026-05-07 16:03 | 42.92708 | 3.00179 | 34664 ft | 370 kts | 212° |
| 2026-05-07 16:03 | 42.90471 | 2.98469 | 34408 ft | 368 kts | 212° |
| 2026-05-07 16:04 | 42.88229 | 2.96757 | 34172 ft | 367 kts | 212° |
| 2026-05-07 16:04 | 42.86033 | 2.95083 | 33920 ft | 365 kts | 212° |
| 2026-05-07 16:04 | 42.83818 | 2.93396 | 33419 ft | 362 kts | 212° |
| 2026-05-07 16:04 | 42.81624 | 2.91725 | 32828 ft | 360 kts | 212° |
| 2026-05-07 16:05 | 42.79441 | 2.90065 | 32259 ft | 359 kts | 212° |
| 2026-05-07 16:05 | 42.77262 | 2.88422 | 31716 ft | 357 kts | 211° |
| 2026-05-07 16:05 | 42.74975 | 2.87070 | 31185 ft | 362 kts | 202° |
| 2026-05-07 16:05 | 42.72460 | 2.86333 | 30694 ft | 373 kts | 192° |
| 2026-05-07 16:06 | 42.69863 | 2.86010 | 30180 ft | 374 kts | 189° |
| 2026-05-07 16:06 | 42.67273 | 2.85751 | 29583 ft | 373 kts | 189° |
| 2026-05-07 16:06 | 42.64713 | 2.85485 | 28999 ft | 372 kts | 189° |
| 2026-05-07 16:06 | 42.62138 | 2.85200 | 28435 ft | 371 kts | 189° |
| 2026-05-07 16:07 | 42.59568 | 2.84907 | 27899 ft | 369 kts | 189° |
| 2026-05-07 16:07 | 42.57020 | 2.84612 | 27388 ft | 367 kts | 189° |
| 2026-05-07 16:07 | 42.54473 | 2.84315 | 26854 ft | 366 kts | 189° |
| 2026-05-07 16:07 | 42.51941 | 2.84018 | 26335 ft | 365 kts | 188° |
| 2026-05-07 16:08 | 42.49412 | 2.83722 | 25825 ft | 364 kts | 188° |
| 2026-05-07 16:08 | 42.46891 | 2.83427 | 25319 ft | 362 kts | 188° |
| 2026-05-07 16:08 | 42.44398 | 2.83041 | 24854 ft | 361 kts | 192° |
| 2026-05-07 16:08 | 42.41858 | 2.82425 | 24543 ft | 373 kts | 193° |
| 2026-05-07 16:09 | 42.39303 | 2.81782 | 24293 ft | 373 kts | 193° |
| 2026-05-07 16:09 | 42.36751 | 2.81145 | 24045 ft | 373 kts | 193° |
| 2026-05-07 16:09 | 42.34224 | 2.80522 | 23812 ft | 364 kts | 193° |
| 2026-05-07 16:09 | 42.31771 | 2.79921 | 23581 ft | 353 kts | 193° |
| 2026-05-07 16:10 | 42.29383 | 2.79337 | 23313 ft | 346 kts | 193° |
| 2026-05-07 16:10 | 42.27044 | 2.78764 | 23042 ft | 345 kts | 193° |
| 2026-05-07 16:10 | 42.24689 | 2.78187 | 22772 ft | 344 kts | 193° |
| 2026-05-07 16:10 | 42.22355 | 2.77616 | 22500 ft | 336 kts | 192° |
| 2026-05-07 16:11 | 42.20086 | 2.77064 | 22227 ft | 329 kts | 192° |
| 2026-05-07 16:11 | 42.17846 | 2.76517 | 21853 ft | 326 kts | 192° |
| 2026-05-07 16:11 | 42.15614 | 2.75970 | 21398 ft | 324 kts | 193° |
| 2026-05-07 16:11 | 42.13481 | 2.75079 | 20983 ft | 317 kts | 209° |
| 2026-05-07 16:12 | 42.11754 | 2.73340 | 20722 ft | 306 kts | 226° |
| 2026-05-07 16:12 | 42.10341 | 2.71221 | 20351 ft | 303 kts | 229° |
| 2026-05-07 16:12 | 42.08978 | 2.69071 | 19930 ft | 301 kts | 229° |
| 2026-05-07 16:12 | 42.07620 | 2.66946 | 19507 ft | 299 kts | 229° |
| 2026-05-07 16:13 | 42.06252 | 2.64831 | 19078 ft | 299 kts | 229° |
| 2026-05-07 16:13 | 42.04883 | 2.62731 | 18658 ft | 298 kts | 229° |
| 2026-05-07 16:13 | 42.03517 | 2.60646 | 18237 ft | 296 kts | 229° |
| 2026-05-07 16:13 | 42.02169 | 2.58594 | 17791 ft | 297 kts | 229° |
| 2026-05-07 16:14 | 42.00805 | 2.56520 | 17391 ft | 296 kts | 229° |
| 2026-05-07 16:14 | 41.99438 | 2.54447 | 17001 ft | 295 kts | 228° |
| 2026-05-07 16:14 | 41.98077 | 2.52386 | 16603 ft | 293 kts | 228° |
| 2026-05-07 16:14 | 41.96724 | 2.50337 | 16227 ft | 291 kts | 228° |
| 2026-05-07 16:15 | 41.95381 | 2.48306 | 15872 ft | 290 kts | 228° |
| 2026-05-07 16:15 | 41.94041 | 2.46282 | 15528 ft | 289 kts | 229° |
| 2026-05-07 16:15 | 41.92703 | 2.44259 | 15190 ft | 289 kts | 228° |
| 2026-05-07 16:15 | 41.91370 | 2.42248 | 14847 ft | 287 kts | 228° |
| 2026-05-07 16:16 | 41.90044 | 2.40241 | 14463 ft | 286 kts | 228° |
| 2026-05-07 16:16 | 41.88730 | 2.38250 | 14085 ft | 285 kts | 228° |
| 2026-05-07 16:16 | 41.87412 | 2.36254 | 13725 ft | 285 kts | 228° |
| 2026-05-07 16:16 | 41.86088 | 2.34263 | 13362 ft | 287 kts | 228° |
| 2026-05-07 16:17 | 41.84885 | 2.32456 | 13061 ft | 284 kts | 228° |
| 2026-05-07 16:18 | 41.84280 | 2.31546 | 12912 ft | 284 kts | 228° |
| 2026-05-07 16:18 | 41.82972 | 2.29577 | 12587 ft | 283 kts | 228° |
| 2026-05-07 16:18 | 41.82089 | 2.28250 | 12363 ft | 282 kts | 229° |
| 2026-05-07 16:19 | 41.80796 | 2.26307 | 12029 ft | 283 kts | 229° |
| 2026-05-07 16:19 | 41.79486 | 2.24343 | 11701 ft | 283 kts | 228° |
| 2026-05-07 16:19 | 41.78177 | 2.22380 | 11368 ft | 281 kts | 228° |
| 2026-05-07 16:19 | 41.76752 | 2.20597 | 11030 ft | 280 kts | 213° |
| 2026-05-07 16:20 | 41.74969 | 2.19565 | 10733 ft | 280 kts | 197° |
| 2026-05-07 16:20 | 41.73085 | 2.18869 | 10524 ft | 280 kts | 195° |
| 2026-05-07 16:20 | 41.71210 | 2.18197 | 10336 ft | 280 kts | 195° |
| 2026-05-07 16:20 | 41.69329 | 2.17509 | 10154 ft | 279 kts | 195° |
| 2026-05-07 16:21 | 41.67462 | 2.16816 | 9924 ft | 278 kts | 195° |
| 2026-05-07 16:21 | 41.65600 | 2.16120 | 9744 ft | 278 kts | 195° |
| 2026-05-07 16:21 | 41.63736 | 2.15419 | 9586 ft | 277 kts | 195° |
| 2026-05-07 16:21 | 41.61881 | 2.14719 | 9455 ft | 277 kts | 195° |
| 2026-05-07 16:22 | 41.60027 | 2.14020 | 9300 ft | 276 kts | 195° |
| 2026-05-07 16:22 | 41.58206 | 2.13333 | 9148 ft | 275 kts | 195° |
| 2026-05-07 16:22 | 41.56370 | 2.12639 | 8997 ft | 271 kts | 195° |
| 2026-05-07 16:22 | 41.54558 | 2.11956 | 8844 ft | 264 kts | 195° |
| 2026-05-07 16:23 | 41.52834 | 2.11180 | 8704 ft | 265 kts | 205° |
| 2026-05-07 16:23 | 41.51366 | 2.09708 | 8559 ft | 266 kts | 230° |
| 2026-05-07 16:23 | 41.50334 | 2.07673 | 8427 ft | 265 kts | 239° |
| 2026-05-07 16:23 | 41.49400 | 2.05545 | 8280 ft | 265 kts | 239° |
| 2026-05-07 16:24 | 41.48469 | 2.03437 | 8132 ft | 264 kts | 239° |
| 2026-05-07 16:24 | 41.47520 | 2.01322 | 7991 ft | 265 kts | 238° |
| 2026-05-07 16:24 | 41.46569 | 1.99221 | 7836 ft | 265 kts | 238° |
| 2026-05-07 16:24 | 41.45612 | 1.97121 | 7688 ft | 264 kts | 238° |
| 2026-05-07 16:25 | 41.44668 | 1.95056 | 7538 ft | 264 kts | 238° |
| 2026-05-07 16:25 | 41.43711 | 1.92971 | 7405 ft | 263 kts | 238° |
| 2026-05-07 16:25 | 41.42756 | 1.90894 | 7274 ft | 262 kts | 238° |
| 2026-05-07 16:25 | 41.41807 | 1.88821 | 7106 ft | 260 kts | 237° |
| 2026-05-07 16:26 | 41.40854 | 1.86747 | 6592 ft | 266 kts | 237° |
| 2026-05-07 16:26 | 41.39868 | 1.84606 | 5992 ft | 275 kts | 237° |
| 2026-05-07 16:26 | 41.38862 | 1.82425 | 5574 ft | 276 kts | 237° |
| 2026-05-07 16:26 | 41.37876 | 1.80269 | 5331 ft | 268 kts | 238° |
| 2026-05-07 16:27 | 41.36932 | 1.78185 | 5181 ft | 257 kts | 237° |
| 2026-05-07 16:27 | 41.36024 | 1.76196 | 5035 ft | 245 kts | 237° |
| 2026-05-07 16:27 | 41.35086 | 1.74378 | 4866 ft | 232 kts | 224° |
| 2026-05-07 16:27 | 41.33775 | 1.73194 | 4434 ft | 228 kts | 198° |
| 2026-05-07 16:28 | 41.32207 | 1.72878 | 3883 ft | 231 kts | 173° |
| 2026-05-07 16:28 | 41.30664 | 1.73487 | 3428 ft | 233 kts | 149° |
| 2026-05-07 16:28 | 41.29309 | 1.74659 | 3142 ft | 232 kts | 143° |
| 2026-05-07 16:28 | 41.27978 | 1.75896 | 2959 ft | 233 kts | 144° |
| 2026-05-07 16:29 | 41.26632 | 1.77118 | 2944 ft | 235 kts | 145° |
| 2026-05-07 16:29 | 41.25296 | 1.78308 | 2958 ft | 233 kts | 144° |
| 2026-05-07 16:29 | 41.23948 | 1.79497 | 2958 ft | 232 kts | 145° |
| 2026-05-07 16:29 | 41.22618 | 1.80706 | 2971 ft | 231 kts | 139° |
| 2026-05-07 16:30 | 41.21682 | 1.82381 | 2959 ft | 227 kts | 109° |
| 2026-05-07 16:30 | 41.21587 | 1.84442 | 2974 ft | 228 kts | 79° |
| 2026-05-07 16:30 | 41.22124 | 1.86427 | 2987 ft | 230 kts | 66° |
| 2026-05-07 16:30 | 41.22860 | 1.88302 | 2989 ft | 228 kts | 63° |
| 2026-05-07 16:31 | 41.23583 | 1.90113 | 2808 ft | 215 kts | 65° |
| 2026-05-07 16:31 | 41.24206 | 1.91822 | 2576 ft | 194 kts | 66° |
| 2026-05-07 16:31 | 41.24747 | 1.93382 | 2366 ft | 179 kts | 67° |
| 2026-05-07 16:31 | 41.25251 | 1.94845 | 2134 ft | 166 kts | 68° |
| 2026-05-07 16:32 | 41.25695 | 1.96141 | 1903 ft | 141 kts | 68° |
| 2026-05-07 16:32 | 41.26078 | 1.97257 | 1680 ft | 129 kts | 70° |
| 2026-05-07 16:32 | 41.26452 | 1.98347 | 1494 ft | 129 kts | 68° |
| 2026-05-07 16:32 | 41.26822 | 1.99429 | 1332 ft | 128 kts | 68° |
| 2026-05-07 16:33 | 41.27191 | 2.00510 | 1153 ft | 129 kts | 68° |
| 2026-05-07 16:33 | 41.27560 | 2.01601 | 1008 ft | 128 kts | 67° |
| 2026-05-07 16:33 | 41.27929 | 2.02654 | 825 ft | 126 kts | 68° |
| 2026-05-07 16:33 | 41.28292 | 2.03719 | 637 ft | 128 kts | 68° |
| 2026-05-07 16:34 | 41.28661 | 2.04789 | 471 ft | 126 kts | 69° |
| 2026-05-07 16:34 | 41.29027 | 2.05844 | 306 ft | 124 kts | 69° |
| 2026-05-07 16:34 | 41.29381 | 2.06893 | 93 ft | 126 kts | 68° |
| 2026-05-07 16:34 | 41.29739 | 2.07934 | 25 ft | 117 kts | 68° |
| 2026-05-07 16:35 | 41.30014 | 2.08743 | 27 ft | 71 kts | 66° |
| 2026-05-07 16:35 | 41.30129 | 2.09149 | 22 ft | 32 kts | 81° |
| 2026-05-07 16:35 | 41.30127 | 2.09365 | 20 ft | 8 kts | 97° |